sensor_id;sensor_type;location;lat;lon;timestamp;temperature;humidity
1377;DHT22;682;52.502;13.488;2022-08-19T00:01:20;21.70;1.00
1377;DHT22;682;52.502;13.488;2022-08-19T00:03:47;21.70;1.00
1377;DHT22;682;52.502;13.488;2022-08-19T00:06:15;21.70;1.00
1377;DHT22;682;52.502;13.488;2022-08-19T00:08:41;21.70;1.00
1377;DHT22;682;52.502;13.488;2022-08-19T00:11:11;21.70;1.00
1377;DHT22;682;52.502;13.488;2022-08-19T00:13:38;21.70;1.00
1377;DHT22;682;52.502;13.488;2022-08-19T00:16:05;21.70;1.00
1377;DHT22;682;52.502;13.488;2022-08-19T00:18:32;21.70;1.00
1377;DHT22;682;52.502;13.488;2022-08-19T00:21:00;21.60;1.00
1377;DHT22;682;52.502;13.488;2022-08-19T00:23:27;21.70;1.00
1377;DHT22;682;52.502;13.488;2022-08-19T00:25:54;21.70;1.00
1377;DHT22;682;52.502;13.488;2022-08-19T00:28:23;21.70;1.00
1377;DHT22;682;52.502;13.488;2022-08-19T00:30:50;21.80;1.00
1377;DHT22;682;52.502;13.488;2022-08-19T00:33:18;21.80;1.00
1377;DHT22;682;52.502;13.488;2022-08-19T00:35:45;21.80;1.00
1377;DHT22;682;52.502;13.488;2022-08-19T00:38:12;21.90;1.00
1377;DHT22;682;52.502;13.488;2022-08-19T00:40:40;21.90;1.00
1377;DHT22;682;52.502;13.488;2022-08-19T00:43:10;21.80;1.00
1377;DHT22;682;52.502;13.488;2022-08-19T00:45:41;21.80;1.00
1377;DHT22;682;52.502;13.488;2022-08-19T00:48:09;21.60;1.00
1377;DHT22;682;52.502;13.488;2022-08-19T00:50:38;21.50;1.00
1377;DHT22;682;52.502;13.488;2022-08-19T00:53:06;21.40;1.00
1377;DHT22;682;52.502;13.488;2022-08-19T00:55:35;21.30;1.00
1377;DHT22;682;52.502;13.488;2022-08-19T00:58:07;21.30;1.00
1377;DHT22;682;52.502;13.488;2022-08-19T01:00:36;21.30;1.00
1377;DHT22;682;52.502;13.488;2022-08-19T01:03:06;21.30;1.00
1377;DHT22;682;52.502;13.488;2022-08-19T01:05:35;21.30;1.00
1377;DHT22;682;52.502;13.488;2022-08-19T01:08:05;21.30;1.00
1377;DHT22;682;52.502;13.488;2022-08-19T01:10:37;21.30;1.00
1377;DHT22;682;52.502;13.488;2022-08-19T01:13:04;21.30;1.00
1377;DHT22;682;52.502;13.488;2022-08-19T01:15:33;21.30;1.00
1377;DHT22;682;52.502;13.488;2022-08-19T01:18:06;21.20;1.00
1377;DHT22;682;52.502;13.488;2022-08-19T01:20:33;21.30;1.00
1377;DHT22;682;52.502;13.488;2022-08-19T01:23:02;21.20;1.00
1377;DHT22;682;52.502;13.488;2022-08-19T01:25:32;21.20;1.00
1377;DHT22;682;52.502;13.488;2022-08-19T01:28:01;21.20;1.00
1377;DHT22;682;52.502;13.488;2022-08-19T01:30:31;21.20;1.00
1377;DHT22;682;52.502;13.488;2022-08-19T01:32:59;21.10;1.00
1377;DHT22;682;52.502;13.488;2022-08-19T01:35:29;21.10;1.00
1377;DHT22;682;52.502;13.488;2022-08-19T01:37:58;21.10;1.00
1377;DHT22;682;52.502;13.488;2022-08-19T01:40:30;21.10;1.00
1377;DHT22;682;52.502;13.488;2022-08-19T01:42:58;21.10;1.00
1377;DHT22;682;52.502;13.488;2022-08-19T01:45:27;21.10;1.00
1377;DHT22;682;52.502;13.488;2022-08-19T01:47:55;21.10;1.00
1377;DHT22;682;52.502;13.488;2022-08-19T01:50:23;21.10;1.00
1377;DHT22;682;52.502;13.488;2022-08-19T01:52:52;21.10;1.00
1377;DHT22;682;52.502;13.488;2022-08-19T01:55:23;21.00;1.00
1377;DHT22;682;52.502;13.488;2022-08-19T01:57:54;21.00;1.00
1377;DHT22;682;52.502;13.488;2022-08-19T02:00:23;21.00;1.00
1377;DHT22;682;52.502;13.488;2022-08-19T02:02:53;20.90;1.00
1377;DHT22;682;52.502;13.488;2022-08-19T02:05:20;20.80;1.00
1377;DHT22;682;52.502;13.488;2022-08-19T02:07:48;20.70;1.00
1377;DHT22;682;52.502;13.488;2022-08-19T02:10:19;20.70;1.00
1377;DHT22;682;52.502;13.488;2022-08-19T02:12:47;20.60;1.00
1377;DHT22;682;52.502;13.488;2022-08-19T02:15:16;20.50;1.00
1377;DHT22;682;52.502;13.488;2022-08-19T02:17:44;20.50;1.00
1377;DHT22;682;52.502;13.488;2022-08-19T02:20:12;20.50;1.00
1377;DHT22;682;52.502;13.488;2022-08-19T02:22:39;20.40;1.00
1377;DHT22;682;52.502;13.488;2022-08-19T02:25:08;20.40;1.00
1377;DHT22;682;52.502;13.488;2022-08-19T02:27:36;20.40;1.00
1377;DHT22;682;52.502;13.488;2022-08-19T02:30:04;20.40;1.00
1377;DHT22;682;52.502;13.488;2022-08-19T02:32:33;20.50;1.00
1377;DHT22;682;52.502;13.488;2022-08-19T02:35:00;20.40;1.00
1377;DHT22;682;52.502;13.488;2022-08-19T02:37:27;20.40;1.00
1377;DHT22;682;52.502;13.488;2022-08-19T02:40:11;20.40;1.00
1377;DHT22;682;52.502;13.488;2022-08-19T02:42:38;20.50;1.00
1377;DHT22;682;52.502;13.488;2022-08-19T02:45:07;20.60;1.00
1377;DHT22;682;52.502;13.488;2022-08-19T02:47:36;20.60;1.00
1377;DHT22;682;52.502;13.488;2022-08-19T02:50:03;20.60;1.00
1377;DHT22;682;52.502;13.488;2022-08-19T02:52:32;20.70;1.00
1377;DHT22;682;52.502;13.488;2022-08-19T02:54:59;20.70;1.00
1377;DHT22;682;52.502;13.488;2022-08-19T02:57:26;20.70;1.00
1377;DHT22;682;52.502;13.488;2022-08-19T02:59:54;20.70;1.00
1377;DHT22;682;52.502;13.488;2022-08-19T03:02:20;20.70;1.00
1377;DHT22;682;52.502;13.488;2022-08-19T03:04:49;20.70;1.00
1377;DHT22;682;52.502;13.488;2022-08-19T03:07:17;20.70;1.00
1377;DHT22;682;52.502;13.488;2022-08-19T03:09:44;20.70;1.00
1377;DHT22;682;52.502;13.488;2022-08-19T03:12:11;20.70;1.00
1377;DHT22;682;52.502;13.488;2022-08-19T03:14:38;20.70;1.00
1377;DHT22;682;52.502;13.488;2022-08-19T03:17:05;20.70;1.00
1377;DHT22;682;52.502;13.488;2022-08-19T03:19:33;20.70;1.00
1377;DHT22;682;52.502;13.488;2022-08-19T03:22:02;20.60;1.00
1377;DHT22;682;52.502;13.488;2022-08-19T03:24:29;20.60;1.00
1377;DHT22;682;52.502;13.488;2022-08-19T03:26:57;20.60;1.00
1377;DHT22;682;52.502;13.488;2022-08-19T03:29:25;20.60;1.00
1377;DHT22;682;52.502;13.488;2022-08-19T03:31:52;20.60;1.00
1377;DHT22;682;52.502;13.488;2022-08-19T03:34:22;20.60;1.00
1377;DHT22;682;52.502;13.488;2022-08-19T03:36:52;20.50;1.00
1377;DHT22;682;52.502;13.488;2022-08-19T03:39:22;20.50;1.00
1377;DHT22;682;52.502;13.488;2022-08-19T03:41:51;20.50;1.00
1377;DHT22;682;52.502;13.488;2022-08-19T03:44:20;20.50;1.00
1377;DHT22;682;52.502;13.488;2022-08-19T03:46:49;20.40;1.00
1377;DHT22;682;52.502;13.488;2022-08-19T03:49:17;20.40;1.00
1377;DHT22;682;52.502;13.488;2022-08-19T03:51:45;20.40;1.00
1377;DHT22;682;52.502;13.488;2022-08-19T03:54:14;20.40;1.00
1377;DHT22;682;52.502;13.488;2022-08-19T03:56:46;20.40;1.00
1377;DHT22;682;52.502;13.488;2022-08-19T03:59:16;20.40;1.00
1377;DHT22;682;52.502;13.488;2022-08-19T04:01:44;20.40;1.00
1377;DHT22;682;52.502;13.488;2022-08-19T04:04:11;20.40;1.00
1377;DHT22;682;52.502;13.488;2022-08-19T04:06:39;20.40;1.00
1377;DHT22;682;52.502;13.488;2022-08-19T04:09:08;20.40;1.00
1377;DHT22;682;52.502;13.488;2022-08-19T04:11:37;20.40;1.00
1377;DHT22;682;52.502;13.488;2022-08-19T04:14:09;20.50;1.00
1377;DHT22;682;52.502;13.488;2022-08-19T04:16:36;20.50;1.00
1377;DHT22;682;52.502;13.488;2022-08-19T04:19:05;20.50;1.00
1377;DHT22;682;52.502;13.488;2022-08-19T04:21:33;20.50;1.00
1377;DHT22;682;52.502;13.488;2022-08-19T04:24:01;20.50;1.00
1377;DHT22;682;52.502;13.488;2022-08-19T04:26:31;20.50;1.00
1377;DHT22;682;52.502;13.488;2022-08-19T04:28:59;20.50;1.00
1377;DHT22;682;52.502;13.488;2022-08-19T04:31:30;20.50;1.00
1377;DHT22;682;52.502;13.488;2022-08-19T04:34:00;20.50;1.00
1377;DHT22;682;52.502;13.488;2022-08-19T04:36:29;20.60;1.00
1377;DHT22;682;52.502;13.488;2022-08-19T04:38:58;20.60;1.00
1377;DHT22;682;52.502;13.488;2022-08-19T04:41:25;20.60;1.00
1377;DHT22;682;52.502;13.488;2022-08-19T04:44:10;20.60;1.00
1377;DHT22;682;52.502;13.488;2022-08-19T04:46:38;20.60;1.00
1377;DHT22;682;52.502;13.488;2022-08-19T04:49:06;20.60;1.00
1377;DHT22;682;52.502;13.488;2022-08-19T04:51:35;20.70;1.00
1377;DHT22;682;52.502;13.488;2022-08-19T04:54:03;20.70;1.00
1377;DHT22;682;52.502;13.488;2022-08-19T04:56:31;20.70;1.00
1377;DHT22;682;52.502;13.488;2022-08-19T04:58:59;20.80;1.00
1377;DHT22;682;52.502;13.488;2022-08-19T05:01:29;20.80;1.00
1377;DHT22;682;52.502;13.488;2022-08-19T05:03:59;20.80;1.00
1377;DHT22;682;52.502;13.488;2022-08-19T05:06:27;20.90;1.00
1377;DHT22;682;52.502;13.488;2022-08-19T05:08:58;20.80;1.00
1377;DHT22;682;52.502;13.488;2022-08-19T05:11:28;20.80;1.00
1377;DHT22;682;52.502;13.488;2022-08-19T05:13:56;20.90;1.00
1377;DHT22;682;52.502;13.488;2022-08-19T05:16:24;21.00;1.00
1377;DHT22;682;52.502;13.488;2022-08-19T05:18:51;21.00;1.00
1377;DHT22;682;52.502;13.488;2022-08-19T05:21:39;21.00;1.00
1377;DHT22;682;52.502;13.488;2022-08-19T05:24:23;21.00;1.00
1377;DHT22;682;52.502;13.488;2022-08-19T05:26:52;21.10;1.00
1377;DHT22;682;52.502;13.488;2022-08-19T05:29:23;21.20;1.00
1377;DHT22;682;52.502;13.488;2022-08-19T05:31:51;21.30;1.00
1377;DHT22;682;52.502;13.488;2022-08-19T05:34:20;21.40;1.00
1377;DHT22;682;52.502;13.488;2022-08-19T05:36:50;21.50;1.00
1377;DHT22;682;52.502;13.488;2022-08-19T05:39:24;21.60;1.00
1377;DHT22;682;52.502;13.488;2022-08-19T05:41:53;21.90;1.00
1377;DHT22;682;52.502;13.488;2022-08-19T05:44:23;22.00;1.00
1377;DHT22;682;52.502;13.488;2022-08-19T05:46:50;22.20;1.00
1377;DHT22;682;52.502;13.488;2022-08-19T05:49:20;22.30;1.00
1377;DHT22;682;52.502;13.488;2022-08-19T05:51:49;22.50;1.00
1377;DHT22;682;52.502;13.488;2022-08-19T05:54:16;22.60;1.00
1377;DHT22;682;52.502;13.488;2022-08-19T05:56:43;22.70;1.00
1377;DHT22;682;52.502;13.488;2022-08-19T05:59:13;22.80;1.00
1377;DHT22;682;52.502;13.488;2022-08-19T06:01:42;22.80;1.00
1377;DHT22;682;52.502;13.488;2022-08-19T06:04:09;22.90;1.00
1377;DHT22;682;52.502;13.488;2022-08-19T06:06:36;22.90;1.00
1377;DHT22;682;52.502;13.488;2022-08-19T06:09:07;23.00;1.00
1377;DHT22;682;52.502;13.488;2022-08-19T06:11:37;23.00;1.00
1377;DHT22;682;52.502;13.488;2022-08-19T06:14:11;23.00;1.00
1377;DHT22;682;52.502;13.488;2022-08-19T06:16:40;23.10;1.00
1377;DHT22;682;52.502;13.488;2022-08-19T06:19:10;23.10;1.00
1377;DHT22;682;52.502;13.488;2022-08-19T06:21:40;23.20;1.00
1377;DHT22;682;52.502;13.488;2022-08-19T06:24:11;23.30;1.00
1377;DHT22;682;52.502;13.488;2022-08-19T06:26:40;23.30;1.00
1377;DHT22;682;52.502;13.488;2022-08-19T06:29:09;23.40;1.00
1377;DHT22;682;52.502;13.488;2022-08-19T06:31:40;23.40;1.00
1377;DHT22;682;52.502;13.488;2022-08-19T06:34:07;23.50;1.00
1377;DHT22;682;52.502;13.488;2022-08-19T06:36:36;23.60;1.00
1377;DHT22;682;52.502;13.488;2022-08-19T06:39:04;23.60;1.00
1377;DHT22;682;52.502;13.488;2022-08-19T06:41:35;23.60;1.00
1377;DHT22;682;52.502;13.488;2022-08-19T06:44:03;23.60;1.00
1377;DHT22;682;52.502;13.488;2022-08-19T06:46:31;23.70;1.00
1377;DHT22;682;52.502;13.488;2022-08-19T06:48:58;23.70;1.00
1377;DHT22;682;52.502;13.488;2022-08-19T06:51:26;23.80;1.00
1377;DHT22;682;52.502;13.488;2022-08-19T06:53:57;23.90;1.00
1377;DHT22;682;52.502;13.488;2022-08-19T06:56:27;23.90;1.00
1377;DHT22;682;52.502;13.488;2022-08-19T06:58:59;23.90;1.00
1377;DHT22;682;52.502;13.488;2022-08-19T07:01:26;23.90;1.00
1377;DHT22;682;52.502;13.488;2022-08-19T07:03:53;23.90;1.00
1377;DHT22;682;52.502;13.488;2022-08-19T07:06:20;23.90;1.00
1377;DHT22;682;52.502;13.488;2022-08-19T07:08:48;24.00;1.00
1377;DHT22;682;52.502;13.488;2022-08-19T07:11:17;24.00;1.00
1377;DHT22;682;52.502;13.488;2022-08-19T07:13:45;24.00;1.00
1377;DHT22;682;52.502;13.488;2022-08-19T07:16:17;24.00;1.00
1377;DHT22;682;52.502;13.488;2022-08-19T07:18:45;24.00;1.00
1377;DHT22;682;52.502;13.488;2022-08-19T07:21:14;24.10;1.00
1377;DHT22;682;52.502;13.488;2022-08-19T07:23:43;24.20;1.00
1377;DHT22;682;52.502;13.488;2022-08-19T07:26:13;24.30;1.00
1377;DHT22;682;52.502;13.488;2022-08-19T07:28:40;24.40;1.00
1377;DHT22;682;52.502;13.488;2022-08-19T07:31:11;24.50;1.00
1377;DHT22;682;52.502;13.488;2022-08-19T07:33:40;24.50;1.00
1377;DHT22;682;52.502;13.488;2022-08-19T07:36:11;24.50;1.00
1377;DHT22;682;52.502;13.488;2022-08-19T07:38:39;24.60;1.00
1377;DHT22;682;52.502;13.488;2022-08-19T07:41:08;24.70;1.00
1377;DHT22;682;52.502;13.488;2022-08-19T07:43:36;24.70;1.00
1377;DHT22;682;52.502;13.488;2022-08-19T07:46:03;24.60;1.00
1377;DHT22;682;52.502;13.488;2022-08-19T07:48:34;24.60;1.00
1377;DHT22;682;52.502;13.488;2022-08-19T07:51:04;24.50;1.00
1377;DHT22;682;52.502;13.488;2022-08-19T07:53:33;24.50;1.00
1377;DHT22;682;52.502;13.488;2022-08-19T07:56:01;24.50;1.00
1377;DHT22;682;52.502;13.488;2022-08-19T07:58:31;24.50;1.00
1377;DHT22;682;52.502;13.488;2022-08-19T08:00:59;24.50;1.00
1377;DHT22;682;52.502;13.488;2022-08-19T08:03:28;24.50;1.00
1377;DHT22;682;52.502;13.488;2022-08-19T08:06:11;24.50;1.00
1377;DHT22;682;52.502;13.488;2022-08-19T08:08:55;24.60;1.00
1377;DHT22;682;52.502;13.488;2022-08-19T08:11:38;24.70;1.00
1377;DHT22;682;52.502;13.488;2022-08-19T08:14:06;24.80;1.00
1377;DHT22;682;52.502;13.488;2022-08-19T08:16:35;24.90;1.00
1377;DHT22;682;52.502;13.488;2022-08-19T08:19:03;25.00;1.00
1377;DHT22;682;52.502;13.488;2022-08-19T08:21:32;25.00;1.00
1377;DHT22;682;52.502;13.488;2022-08-19T08:24:00;25.00;1.00
1377;DHT22;682;52.502;13.488;2022-08-19T08:26:27;25.10;1.00
1377;DHT22;682;52.502;13.488;2022-08-19T08:28:54;25.20;1.00
1377;DHT22;682;52.502;13.488;2022-08-19T08:31:21;25.40;1.00
1377;DHT22;682;52.502;13.488;2022-08-19T08:33:49;25.60;1.00
1377;DHT22;682;52.502;13.488;2022-08-19T08:36:16;25.90;1.00
1377;DHT22;682;52.502;13.488;2022-08-19T08:38:45;26.20;1.00
1377;DHT22;682;52.502;13.488;2022-08-19T08:41:18;26.40;1.00
1377;DHT22;682;52.502;13.488;2022-08-19T08:43:49;26.70;1.00
1377;DHT22;682;52.502;13.488;2022-08-19T08:46:24;26.90;1.00
1377;DHT22;682;52.502;13.488;2022-08-19T08:48:57;27.10;1.00
1377;DHT22;682;52.502;13.488;2022-08-19T08:51:29;27.10;1.00
1377;DHT22;682;52.502;13.488;2022-08-19T08:54:00;27.10;1.00
1377;DHT22;682;52.502;13.488;2022-08-19T08:56:29;27.20;1.00
1377;DHT22;682;52.502;13.488;2022-08-19T08:58:59;27.30;1.00
1377;DHT22;682;52.502;13.488;2022-08-19T09:01:26;27.20;1.00
1377;DHT22;682;52.502;13.488;2022-08-19T09:03:53;27.10;1.00
1377;DHT22;682;52.502;13.488;2022-08-19T09:06:26;27.00;1.00
1377;DHT22;682;52.502;13.488;2022-08-19T09:09:03;26.90;1.00
1377;DHT22;682;52.502;13.488;2022-08-19T09:11:50;26.90;1.00
1377;DHT22;682;52.502;13.488;2022-08-19T09:14:32;26.90;1.00
1377;DHT22;682;52.502;13.488;2022-08-19T09:17:01;26.90;1.00
1377;DHT22;682;52.502;13.488;2022-08-19T09:19:35;26.90;1.00
1377;DHT22;682;52.502;13.488;2022-08-19T09:22:02;26.90;1.00
1377;DHT22;682;52.502;13.488;2022-08-19T09:24:32;26.90;1.00
1377;DHT22;682;52.502;13.488;2022-08-19T09:26:59;27.00;1.00
1377;DHT22;682;52.502;13.488;2022-08-19T09:29:26;27.10;1.00
1377;DHT22;682;52.502;13.488;2022-08-19T09:31:56;27.30;1.00
1377;DHT22;682;52.502;13.488;2022-08-19T09:34:23;27.30;1.00
1377;DHT22;682;52.502;13.488;2022-08-19T09:36:51;27.30;1.00
1377;DHT22;682;52.502;13.488;2022-08-19T09:39:21;27.10;1.00
1377;DHT22;682;52.502;13.488;2022-08-19T09:41:50;27.00;1.00
1377;DHT22;682;52.502;13.488;2022-08-19T09:44:18;27.00;1.00
1377;DHT22;682;52.502;13.488;2022-08-19T09:46:46;27.20;1.00
1377;DHT22;682;52.502;13.488;2022-08-19T09:49:13;27.30;1.00
1377;DHT22;682;52.502;13.488;2022-08-19T09:51:50;27.50;1.00
1377;DHT22;682;52.502;13.488;2022-08-19T09:54:18;27.60;1.00
1377;DHT22;682;52.502;13.488;2022-08-19T09:56:45;27.50;1.00
1377;DHT22;682;52.502;13.488;2022-08-19T09:59:13;27.40;1.00
1377;DHT22;682;52.502;13.488;2022-08-19T10:01:40;27.30;1.00
1377;DHT22;682;52.502;13.488;2022-08-19T10:04:07;27.30;1.00
1377;DHT22;682;52.502;13.488;2022-08-19T10:06:38;27.30;1.00
1377;DHT22;682;52.502;13.488;2022-08-19T10:09:09;27.30;1.00
1377;DHT22;682;52.502;13.488;2022-08-19T10:11:39;27.30;1.00
1377;DHT22;682;52.502;13.488;2022-08-19T10:14:07;27.20;1.00
1377;DHT22;682;52.502;13.488;2022-08-19T10:16:36;27.10;1.00
1377;DHT22;682;52.502;13.488;2022-08-19T10:19:04;27.10;1.00
1377;DHT22;682;52.502;13.488;2022-08-19T10:21:33;27.00;1.00
1377;DHT22;682;52.502;13.488;2022-08-19T10:24:06;27.10;1.00
1377;DHT22;682;52.502;13.488;2022-08-19T10:26:37;27.10;1.00
1377;DHT22;682;52.502;13.488;2022-08-19T10:29:07;27.30;1.00
1377;DHT22;682;52.502;13.488;2022-08-19T10:31:36;27.70;1.00
1377;DHT22;682;52.502;13.488;2022-08-19T10:34:03;28.60;1.00
1377;DHT22;682;52.502;13.488;2022-08-19T10:36:32;29.50;1.00
1377;DHT22;682;52.502;13.488;2022-08-19T10:39:03;30.10;1.00
1377;DHT22;682;52.502;13.488;2022-08-19T10:41:34;30.40;1.00
1377;DHT22;682;52.502;13.488;2022-08-19T10:44:03;30.20;1.00
1377;DHT22;682;52.502;13.488;2022-08-19T10:46:37;29.90;1.00
1377;DHT22;682;52.502;13.488;2022-08-19T10:49:09;29.50;1.00
1377;DHT22;682;52.502;13.488;2022-08-19T10:51:38;29.00;1.00
1377;DHT22;682;52.502;13.488;2022-08-19T10:54:23;28.60;1.00
1377;DHT22;682;52.502;13.488;2022-08-19T10:57:13;28.30;1.00
1377;DHT22;682;52.502;13.488;2022-08-19T10:59:39;27.80;1.00
1377;DHT22;682;52.502;13.488;2022-08-19T11:02:09;27.50;1.00
1377;DHT22;682;52.502;13.488;2022-08-19T11:04:41;27.00;1.00
1377;DHT22;682;52.502;13.488;2022-08-19T11:07:08;26.60;1.00
1377;DHT22;682;52.502;13.488;2022-08-19T11:09:38;26.50;1.00
1377;DHT22;682;52.502;13.488;2022-08-19T11:12:06;26.60;1.00
1377;DHT22;682;52.502;13.488;2022-08-19T11:14:33;26.60;1.00
1377;DHT22;682;52.502;13.488;2022-08-19T11:17:01;26.50;1.00
1377;DHT22;682;52.502;13.488;2022-08-19T11:19:29;26.40;1.00
1377;DHT22;682;52.502;13.488;2022-08-19T11:21:59;26.30;1.00
1377;DHT22;682;52.502;13.488;2022-08-19T11:24:28;26.10;1.00
1377;DHT22;682;52.502;13.488;2022-08-19T11:27:01;26.10;1.00
1377;DHT22;682;52.502;13.488;2022-08-19T11:29:35;25.90;1.00
1377;DHT22;682;52.502;13.488;2022-08-19T11:32:07;25.80;1.00
1377;DHT22;682;52.502;13.488;2022-08-19T11:34:35;25.70;1.00
1377;DHT22;682;52.502;13.488;2022-08-19T11:37:08;25.70;1.00
1377;DHT22;682;52.502;13.488;2022-08-19T11:39:35;25.90;1.00
1377;DHT22;682;52.502;13.488;2022-08-19T11:42:05;26.40;1.00
1377;DHT22;682;52.502;13.488;2022-08-19T11:44:53;27.00;1.00
1377;DHT22;682;52.502;13.488;2022-08-19T11:47:20;27.00;1.00
1377;DHT22;682;52.502;13.488;2022-08-19T11:49:47;26.80;1.00
1377;DHT22;682;52.502;13.488;2022-08-19T11:52:16;26.70;1.00
1377;DHT22;682;52.502;13.488;2022-08-19T11:54:44;26.50;1.00
1377;DHT22;682;52.502;13.488;2022-08-19T11:57:14;26.50;1.00
1377;DHT22;682;52.502;13.488;2022-08-19T11:59:47;26.70;1.00
1377;DHT22;682;52.502;13.488;2022-08-19T12:02:14;26.80;1.00
1377;DHT22;682;52.502;13.488;2022-08-19T12:04:41;26.80;1.00
1377;DHT22;682;52.502;13.488;2022-08-19T12:07:09;26.90;1.00
1377;DHT22;682;52.502;13.488;2022-08-19T12:09:38;26.90;1.00
1377;DHT22;682;52.502;13.488;2022-08-19T12:12:06;26.80;1.00
1377;DHT22;682;52.502;13.488;2022-08-19T12:14:34;26.90;1.00
1377;DHT22;682;52.502;13.488;2022-08-19T12:17:01;27.40;1.00
1377;DHT22;682;52.502;13.488;2022-08-19T12:19:30;28.00;1.00
1377;DHT22;682;52.502;13.488;2022-08-19T12:22:02;28.30;1.00
1377;DHT22;682;52.502;13.488;2022-08-19T12:24:31;28.30;1.00
1377;DHT22;682;52.502;13.488;2022-08-19T12:27:00;28.20;1.00
1377;DHT22;682;52.502;13.488;2022-08-19T12:29:29;27.90;1.00
1377;DHT22;682;52.502;13.488;2022-08-19T12:31:58;27.50;1.00
1377;DHT22;682;52.502;13.488;2022-08-19T12:34:28;27.30;1.00
1377;DHT22;682;52.502;13.488;2022-08-19T12:36:56;27.30;1.00
1377;DHT22;682;52.502;13.488;2022-08-19T12:39:23;27.40;1.00
1377;DHT22;682;52.502;13.488;2022-08-19T12:41:53;27.40;1.00
1377;DHT22;682;52.502;13.488;2022-08-19T12:44:22;27.50;1.00
1377;DHT22;682;52.502;13.488;2022-08-19T12:46:49;27.50;1.00
1377;DHT22;682;52.502;13.488;2022-08-19T12:49:17;27.40;1.00
1377;DHT22;682;52.502;13.488;2022-08-19T12:51:44;27.20;1.00
1377;DHT22;682;52.502;13.488;2022-08-19T12:54:12;27.00;1.00
1377;DHT22;682;52.502;13.488;2022-08-19T12:56:40;27.00;1.00
1377;DHT22;682;52.502;13.488;2022-08-19T12:59:09;27.30;1.00
1377;DHT22;682;52.502;13.488;2022-08-19T13:01:38;27.50;1.00
1377;DHT22;682;52.502;13.488;2022-08-19T13:04:06;28.00;1.00
1377;DHT22;682;52.502;13.488;2022-08-19T13:06:33;28.90;1.00
1377;DHT22;682;52.502;13.488;2022-08-19T13:09:00;30.00;1.00
1377;DHT22;682;52.502;13.488;2022-08-19T13:11:26;30.40;1.00
1377;DHT22;682;52.502;13.488;2022-08-19T13:13:58;30.40;1.00
1377;DHT22;682;52.502;13.488;2022-08-19T13:16:25;30.00;1.00
1377;DHT22;682;52.502;13.488;2022-08-19T13:18:55;29.50;1.00
1377;DHT22;682;52.502;13.488;2022-08-19T13:21:25;29.20;1.00
1377;DHT22;682;52.502;13.488;2022-08-19T13:23:53;28.90;1.00
1377;DHT22;682;52.502;13.488;2022-08-19T13:26:21;28.50;1.00
1377;DHT22;682;52.502;13.488;2022-08-19T13:28:47;28.10;1.00
1377;DHT22;682;52.502;13.488;2022-08-19T13:31:34;27.80;1.00
1377;DHT22;682;52.502;13.488;2022-08-19T13:34:31;27.80;1.00
1377;DHT22;682;52.502;13.488;2022-08-19T13:36:59;27.80;1.00
1377;DHT22;682;52.502;13.488;2022-08-19T13:39:28;27.70;1.00
1377;DHT22;682;52.502;13.488;2022-08-19T13:41:56;27.60;1.00
1377;DHT22;682;52.502;13.488;2022-08-19T13:44:23;27.60;1.00
1377;DHT22;682;52.502;13.488;2022-08-19T13:46:50;27.60;1.00
1377;DHT22;682;52.502;13.488;2022-08-19T13:49:17;27.60;1.00
1377;DHT22;682;52.502;13.488;2022-08-19T13:51:46;27.60;1.00
1377;DHT22;682;52.502;13.488;2022-08-19T13:54:13;27.60;1.00
1377;DHT22;682;52.502;13.488;2022-08-19T13:56:42;27.60;1.00
1377;DHT22;682;52.502;13.488;2022-08-19T13:59:09;27.40;1.00
1377;DHT22;682;52.502;13.488;2022-08-19T14:01:37;27.30;1.00
1377;DHT22;682;52.502;13.488;2022-08-19T14:04:04;27.20;1.00
1377;DHT22;682;52.502;13.488;2022-08-19T14:06:38;27.10;1.00
1377;DHT22;682;52.502;13.488;2022-08-19T14:09:06;27.00;1.00
1377;DHT22;682;52.502;13.488;2022-08-19T14:11:34;26.90;1.00
1377;DHT22;682;52.502;13.488;2022-08-19T14:14:03;26.70;1.00
1377;DHT22;682;52.502;13.488;2022-08-19T14:16:29;26.60;1.00
1377;DHT22;682;52.502;13.488;2022-08-19T14:18:57;26.50;1.00
1377;DHT22;682;52.502;13.488;2022-08-19T14:21:24;26.50;1.00
1377;DHT22;682;52.502;13.488;2022-08-19T14:23:54;26.40;1.00
1377;DHT22;682;52.502;13.488;2022-08-19T14:26:22;26.40;1.00
1377;DHT22;682;52.502;13.488;2022-08-19T14:28:50;26.30;1.00
1377;DHT22;682;52.502;13.488;2022-08-19T14:31:18;26.20;1.00
1377;DHT22;682;52.502;13.488;2022-08-19T14:33:46;26.20;1.00
1377;DHT22;682;52.502;13.488;2022-08-19T14:36:13;26.30;1.00
1377;DHT22;682;52.502;13.488;2022-08-19T14:38:43;26.30;1.00
1377;DHT22;682;52.502;13.488;2022-08-19T14:41:25;26.40;1.00
1377;DHT22;682;52.502;13.488;2022-08-19T14:43:53;26.40;1.00
1377;DHT22;682;52.502;13.488;2022-08-19T14:46:23;26.30;1.00
1377;DHT22;682;52.502;13.488;2022-08-19T14:48:53;26.30;1.00
1377;DHT22;682;52.502;13.488;2022-08-19T14:51:21;26.40;1.00
1377;DHT22;682;52.502;13.488;2022-08-19T14:53:53;26.10;1.00
1377;DHT22;682;52.502;13.488;2022-08-19T14:56:23;26.00;1.00
1377;DHT22;682;52.502;13.488;2022-08-19T14:58:54;25.90;1.00
1377;DHT22;682;52.502;13.488;2022-08-19T15:01:25;25.80;1.00
1377;DHT22;682;52.502;13.488;2022-08-19T15:03:52;25.70;1.00
1377;DHT22;682;52.502;13.488;2022-08-19T15:06:20;25.80;1.00
1377;DHT22;682;52.502;13.488;2022-08-19T15:08:48;25.70;1.00
1377;DHT22;682;52.502;13.488;2022-08-19T15:11:18;25.60;1.00
1377;DHT22;682;52.502;13.488;2022-08-19T15:13:47;25.60;1.00
1377;DHT22;682;52.502;13.488;2022-08-19T15:16:16;25.60;1.00
1377;DHT22;682;52.502;13.488;2022-08-19T15:18:44;25.60;1.00
1377;DHT22;682;52.502;13.488;2022-08-19T15:21:11;25.60;1.00
1377;DHT22;682;52.502;13.488;2022-08-19T15:23:39;25.60;1.00
1377;DHT22;682;52.502;13.488;2022-08-19T15:26:06;25.50;1.00
1377;DHT22;682;52.502;13.488;2022-08-19T15:28:34;25.50;1.00
1377;DHT22;682;52.502;13.488;2022-08-19T15:31:01;25.40;1.00
1377;DHT22;682;52.502;13.488;2022-08-19T15:33:30;25.40;1.00
1377;DHT22;682;52.502;13.488;2022-08-19T15:35:57;25.40;1.00
1377;DHT22;682;52.502;13.488;2022-08-19T15:38:24;25.40;1.00
1377;DHT22;682;52.502;13.488;2022-08-19T15:40:52;25.30;1.00
1377;DHT22;682;52.502;13.488;2022-08-19T15:43:41;25.30;1.00
1377;DHT22;682;52.502;13.488;2022-08-19T15:46:08;25.30;1.00
1377;DHT22;682;52.502;13.488;2022-08-19T15:48:37;25.20;1.00
1377;DHT22;682;52.502;13.488;2022-08-19T15:51:04;25.20;1.00
1377;DHT22;682;52.502;13.488;2022-08-19T15:53:34;25.10;1.00
1377;DHT22;682;52.502;13.488;2022-08-19T15:56:02;25.00;1.00
1377;DHT22;682;52.502;13.488;2022-08-19T15:58:29;25.00;1.00
1377;DHT22;682;52.502;13.488;2022-08-19T16:01:13;25.00;1.00
1377;DHT22;682;52.502;13.488;2022-08-19T16:04:00;25.00;1.00
1377;DHT22;682;52.502;13.488;2022-08-19T16:06:46;24.90;1.00
1377;DHT22;682;52.502;13.488;2022-08-19T16:09:14;24.90;1.00
1377;DHT22;682;52.502;13.488;2022-08-19T16:11:42;24.70;1.00
1377;DHT22;682;52.502;13.488;2022-08-19T16:14:09;24.70;1.00
1377;DHT22;682;52.502;13.488;2022-08-19T16:16:37;24.70;1.00
1377;DHT22;682;52.502;13.488;2022-08-19T16:19:07;24.50;1.00
1377;DHT22;682;52.502;13.488;2022-08-19T16:21:35;24.30;1.00
1377;DHT22;682;52.502;13.488;2022-08-19T16:24:06;24.30;1.00
1377;DHT22;682;52.502;13.488;2022-08-19T16:26:33;24.20;1.00
1377;DHT22;682;52.502;13.488;2022-08-19T16:29:01;24.20;1.00
1377;DHT22;682;52.502;13.488;2022-08-19T16:31:30;24.10;1.00